Terminal Aerodrome Forecast
Issued by NWS

Home | Current Version | Previous Version | Text Only | Print | Product List | Glossary On
Versions: 1 2 3 4 5 6 7 8 9 10 11 12 13 14 15 16
000
FTUS43 KJKL 260739 AAB
TAFSJS
TAF AMD
KSJS 260739Z 2608/2706 02007KT P6SM -RA VCSH BKN004 OVC010
     FM261030 VRB03KT P6SM OVC005
     FM261700 VRB03KT P6SM SCT008 OVC012
     FM262100 02006KT P6SM SCT025 BKN035=

USA.gov is the U.S. government's official web portal to all federal, state and local government web resources and services.